createdAt,value
2018-11-20T00:00:17.002Z,4.10
2018-11-20T00:02:45.170Z,4.12
2018-11-20T00:05:12.638Z,4.06
2018-11-20T00:07:39.977Z,4.08
2018-11-20T00:10:07.381Z,4.12
2018-11-20T00:12:34.789Z,4.22
2018-11-20T00:15:02.652Z,4.18
2018-11-20T00:17:30.076Z,4.20
2018-11-20T00:19:57.526Z,4.26
2018-11-20T00:22:24.917Z,4.26
2018-11-20T00:24:52.364Z,4.28
2018-11-20T00:27:19.781Z,4.32
2018-11-20T00:29:47.184Z,4.28
2018-11-20T00:32:17.871Z,4.21
2018-11-20T00:34:45.264Z,4.07
2018-11-20T00:37:12.689Z,4.05
2018-11-20T00:39:40.146Z,4.12
2018-11-20T00:42:07.564Z,4.18
2018-11-20T00:44:34.965Z,4.08
2018-11-20T00:47:02.388Z,3.99
2018-11-20T00:49:29.824Z,3.80
2018-11-20T00:51:57.277Z,3.59
2018-11-20T00:54:24.699Z,3.60
2018-11-20T00:56:52.161Z,3.67
2018-11-20T00:59:19.594Z,3.77
2018-11-20T01:01:46.997Z,3.74
2018-11-20T01:04:14.433Z,3.68
2018-11-20T01:06:41.829Z,3.73
2018-11-20T01:09:09.301Z,3.80
2018-11-20T01:11:36.812Z,3.88
2018-11-20T01:14:04.564Z,3.94
2018-11-20T01:16:31.970Z,3.94
2018-11-20T01:18:59.377Z,3.85
2018-11-20T01:21:26.801Z,3.89
2018-11-20T01:23:54.225Z,3.84
2018-11-20T01:26:21.659Z,3.74
2018-11-20T01:28:49.090Z,3.62
2018-11-20T01:31:16.493Z,3.67
2018-11-20T01:33:43.917Z,3.65
2018-11-20T01:36:11.513Z,3.71
2018-11-20T01:38:38.907Z,3.77
2018-11-20T01:41:06.310Z,3.75
2018-11-20T01:43:33.760Z,3.75
2018-11-20T01:46:01.254Z,3.73
2018-11-20T01:48:28.672Z,3.69
2018-11-20T01:50:56.081Z,3.65
2018-11-20T01:53:23.515Z,3.61
2018-11-20T01:55:50.933Z,3.59
2018-11-20T01:58:18.405Z,3.57
2018-11-20T02:00:45.833Z,3.58
2018-11-20T02:03:13.252Z,3.59
2018-11-20T02:05:40.655Z,3.57
2018-11-20T02:08:08.050Z,3.64
2018-11-20T02:10:35.451Z,3.61
2018-11-20T02:16:04.769Z,4.02
2018-11-20T02:18:32.185Z,3.81
2018-11-20T02:20:59.636Z,3.68
2018-11-20T02:23:27.050Z,3.63
2018-11-20T02:25:54.468Z,3.58
2018-11-20T02:28:21.884Z,3.54
2018-11-20T02:30:49.410Z,3.48
2018-11-20T02:33:16.865Z,3.53
2018-11-20T02:35:44.281Z,3.56
2018-11-20T02:38:11.677Z,3.56
2018-11-20T02:40:45.019Z,3.56
2018-11-20T02:43:12.430Z,3.44
2018-11-20T02:45:40.749Z,3.40
2018-11-20T02:48:08.165Z,3.41
2018-11-20T02:50:35.616Z,3.33
2018-11-20T02:53:03.040Z,3.19
2018-11-20T02:55:30.542Z,3.15
2018-11-20T02:57:57.954Z,3.12
2018-11-20T03:00:25.387Z,3.03
2018-11-20T03:02:52.786Z,3.01
2018-11-20T03:05:20.204Z,3.01
2018-11-20T03:07:47.662Z,2.92
2018-11-20T03:10:15.077Z,2.92
2018-11-20T03:12:42.506Z,2.90
2018-11-20T03:15:09.955Z,2.90
2018-11-20T03:17:37.350Z,2.94
2018-11-20T03:20:04.745Z,2.86
2018-11-20T03:22:32.223Z,2.84
2018-11-20T03:24:59.646Z,2.92
2018-11-20T03:27:27.048Z,2.98
2018-11-20T03:29:54.471Z,2.99
2018-11-20T03:32:21.873Z,2.97
2018-11-20T03:34:49.306Z,2.99
2018-11-20T03:37:16.702Z,3.00
2018-11-20T03:39:44.968Z,2.95
2018-11-20T03:42:12.417Z,2.88
2018-11-20T03:44:39.851Z,2.88
2018-11-20T03:47:07.357Z,2.83
2018-11-20T03:49:34.817Z,2.82
2018-11-20T03:52:02.242Z,2.84
2018-11-20T03:54:29.693Z,2.90
2018-11-20T03:56:57.113Z,2.97
2018-11-20T03:59:24.505Z,3.08
2018-11-20T04:01:51.935Z,3.11
2018-11-20T04:04:19.360Z,3.17
2018-11-20T04:06:46.772Z,3.19
2018-11-20T04:09:14.189Z,3.15
2018-11-20T04:11:41.599Z,3.10
2018-11-20T04:14:09.889Z,3.11
2018-11-20T04:16:37.324Z,3.09
2018-11-20T04:19:04.838Z,3.05
2018-11-20T04:21:32.284Z,3.05
2018-11-20T04:24:00.539Z,3.10
2018-11-20T04:26:27.955Z,3.25
2018-11-20T04:28:55.528Z,3.38
2018-11-20T04:31:34.722Z,3.44
2018-11-20T04:34:02.178Z,3.44
2018-11-20T04:36:29.639Z,3.43
2018-11-20T04:38:57.383Z,3.36
2018-11-20T04:41:24.905Z,3.22
2018-11-20T04:43:52.224Z,3.05
2018-11-20T04:46:19.628Z,2.99
2018-11-20T04:48:47.075Z,2.95
2018-11-20T04:51:14.566Z,3.05
2018-11-20T04:53:42.050Z,3.05
2018-11-20T04:56:09.473Z,3.01
2018-11-20T04:58:36.909Z,2.95
2018-11-20T05:01:04.324Z,2.91
2018-11-20T05:03:31.734Z,2.92
2018-11-20T05:05:59.207Z,2.92
2018-11-20T05:08:26.631Z,2.91
2018-11-20T05:10:54.082Z,2.95
2018-11-20T05:13:21.598Z,2.94
2018-11-20T05:15:48.969Z,2.95
2018-11-20T05:18:16.373Z,3.03
2018-11-20T05:20:43.824Z,3.05
2018-11-20T05:23:11.225Z,3.16
2018-11-20T05:25:38.681Z,3.26
2018-11-20T05:28:06.234Z,3.25
2018-11-20T05:30:33.687Z,3.35
2018-11-20T05:33:01.142Z,3.40
2018-11-20T05:35:28.550Z,3.44
2018-11-20T05:37:56.158Z,3.42
2018-11-20T05:40:23.692Z,3.40
2018-11-20T05:42:51.106Z,3.28
2018-11-20T05:45:18.496Z,3.27
2018-11-20T05:47:45.911Z,3.22
2018-11-20T05:50:13.337Z,3.23
2018-11-20T05:52:40.809Z,3.23
2018-11-20T05:55:08.224Z,3.21
2018-11-20T05:57:35.664Z,3.23
2018-11-20T06:00:03.117Z,3.18
2018-11-20T06:02:30.526Z,3.11
2018-11-20T06:04:57.982Z,3.12
2018-11-20T06:07:25.419Z,3.11
2018-11-20T06:09:52.833Z,3.09
2018-11-20T06:12:20.247Z,3.10
2018-11-20T06:14:47.658Z,3.17
2018-11-20T06:17:15.089Z,3.24
2018-11-20T06:19:42.673Z,3.25
2018-11-20T06:22:11.077Z,3.27
2018-11-20T06:24:38.675Z,3.34
2018-11-20T06:27:06.833Z,3.38
2018-11-20T06:29:34.344Z,3.38
2018-11-20T06:32:01.781Z,3.37
2018-11-20T06:34:29.267Z,3.44
2018-11-20T06:36:56.590Z,3.47
2018-11-20T06:39:24.849Z,3.50
2018-11-20T06:41:52.302Z,3.43
2018-11-20T06:44:19.725Z,3.42
2018-11-20T06:46:47.151Z,3.44
2018-11-20T06:49:14.562Z,3.43
2018-11-20T06:51:42.099Z,3.39
2018-11-20T06:54:09.715Z,3.48
2018-11-20T06:56:38.014Z,3.64
2018-11-20T06:59:05.489Z,3.74
2018-11-20T07:01:33.055Z,3.69
2018-11-20T07:04:00.329Z,3.60
2018-11-20T07:06:27.772Z,3.48
2018-11-20T07:08:55.245Z,3.48
2018-11-20T07:11:22.816Z,3.56
2018-11-20T07:13:50.219Z,3.59
2018-11-20T07:16:17.812Z,3.60
2018-11-20T07:18:45.151Z,3.67
2018-11-20T07:21:12.564Z,3.69
2018-11-20T07:23:40.003Z,3.71
2018-11-20T07:26:08.183Z,3.67
2018-11-20T07:28:35.705Z,3.71
2018-11-20T07:31:03.236Z,3.67
2018-11-20T07:33:30.577Z,3.72
2018-11-20T07:35:58.028Z,3.75
2018-11-20T07:38:25.457Z,3.84
2018-11-20T07:40:52.862Z,3.88
2018-11-20T07:43:20.335Z,3.83
2018-11-20T07:45:48.551Z,3.89
2018-11-20T07:48:15.966Z,3.90
2018-11-20T07:50:43.456Z,3.85
2018-11-20T07:53:10.882Z,3.86
2018-11-20T07:55:38.421Z,3.83
2018-11-20T07:58:05.744Z,3.88
2018-11-20T08:00:33.204Z,3.90
2018-11-20T08:03:00.598Z,3.91
2018-11-20T08:05:28.680Z,3.84
2018-11-20T08:07:56.081Z,3.92
2018-11-20T08:10:24.654Z,3.95
2018-11-20T08:12:52.051Z,3.95
2018-11-20T08:15:19.531Z,3.96
2018-11-20T08:17:46.881Z,4.00
2018-11-20T08:20:14.386Z,4.08
2018-11-20T08:22:41.834Z,4.15
2018-11-20T08:25:09.508Z,4.23
2018-11-20T08:27:37.579Z,4.29
2018-11-20T08:30:04.985Z,4.27
2018-11-20T08:32:32.423Z,4.19
2018-11-20T08:34:59.917Z,4.28
2018-11-20T08:37:27.280Z,4.35
2018-11-20T08:39:54.761Z,4.29
2018-11-20T08:42:22.314Z,4.30
2018-11-20T08:44:49.765Z,4.36
2018-11-20T08:47:17.175Z,4.35
2018-11-20T08:49:44.618Z,4.44
2018-11-20T08:52:12.032Z,4.47
2018-11-20T08:54:39.474Z,4.44
2018-11-20T08:57:07.135Z,4.51
2018-11-20T08:59:34.540Z,4.42
2018-11-20T09:02:02.826Z,4.27
2018-11-20T09:04:30.241Z,4.17
2018-11-20T09:06:57.647Z,4.09
2018-11-20T09:09:25.071Z,4.09
2018-11-20T09:11:52.577Z,4.01
2018-11-20T09:14:20.064Z,4.01
2018-11-20T09:16:47.456Z,4.01
2018-11-20T09:19:14.875Z,4.05
2018-11-20T09:21:42.284Z,4.19
2018-11-20T09:24:09.714Z,4.31
2018-11-20T09:26:37.779Z,4.43
2018-11-20T09:29:05.293Z,4.41
2018-11-20T09:31:32.774Z,4.50
2018-11-20T09:34:00.214Z,4.56
2018-11-20T09:36:27.631Z,4.54
2018-11-20T09:38:55.073Z,4.54
2018-11-20T09:41:23.529Z,4.53
2018-11-20T09:43:50.939Z,4.45
2018-11-20T09:46:18.614Z,4.70
2018-11-20T09:48:46.218Z,4.84
2018-11-20T09:51:13.733Z,5.02
2018-11-20T09:53:41.150Z,4.93
2018-11-20T09:56:08.551Z,4.92
2018-11-20T09:58:36.033Z,4.86
2018-11-20T10:01:03.453Z,4.67
2018-11-20T10:03:30.958Z,4.63
2018-11-20T10:05:58.352Z,4.69
2018-11-20T10:08:25.778Z,4.79
2018-11-20T10:10:53.208Z,4.88
2018-11-20T10:13:20.603Z,4.96
2018-11-20T10:15:48.104Z,4.90
2018-11-20T10:18:15.566Z,4.67
2018-11-20T10:20:43.066Z,4.64
2018-11-20T10:23:10.550Z,4.84
2018-11-20T10:25:38.218Z,5.03
2018-11-20T10:28:05.449Z,5.05
2018-11-20T10:30:32.914Z,5.25
2018-11-20T10:33:00.406Z,5.24
2018-11-20T10:35:28.465Z,5.36
2018-11-20T10:37:55.979Z,5.48
2018-11-20T10:40:23.713Z,5.61
2018-11-20T10:42:51.151Z,5.62
2018-11-20T10:45:18.821Z,5.68
2018-11-20T10:47:46.235Z,5.70
2018-11-20T10:50:13.667Z,5.69
2018-11-20T10:52:42.160Z,5.55
2018-11-20T10:55:09.861Z,5.36
2018-11-20T10:57:37.299Z,5.28
2018-11-20T11:00:04.836Z,5.23
2018-11-20T11:02:32.254Z,5.30
2018-11-20T11:04:59.992Z,5.46
2018-11-20T11:07:27.470Z,5.66
2018-11-20T11:09:54.794Z,5.72
2018-11-20T11:12:22.250Z,5.71
2018-11-20T11:14:49.708Z,5.66
2018-11-20T11:17:17.133Z,5.71
2018-11-20T11:19:44.517Z,5.70
2018-11-20T11:22:12.028Z,5.67
2018-11-20T11:24:39.436Z,5.73
2018-11-20T11:27:06.842Z,5.81
2018-11-20T11:29:34.263Z,5.82
2018-11-20T11:32:01.850Z,5.77
2018-11-20T11:34:29.363Z,5.58
2018-11-20T11:36:57.040Z,5.52
2018-11-20T11:39:24.443Z,5.41
2018-11-20T11:41:51.926Z,5.40
2018-11-20T11:44:19.450Z,5.51
2018-11-20T11:46:46.911Z,5.47
2018-11-20T11:49:14.350Z,5.50
2018-11-20T11:51:41.903Z,5.66
2018-11-20T11:54:09.311Z,5.58
2018-11-20T11:56:36.728Z,5.39
2018-11-20T11:59:04.258Z,5.49
